sensor_id;sensor_type;location;lat;lon;timestamp;temperature;humidity
41256;DHT22;26989;45.524;10.938;2022-10-28T00:01:49;14.80;99.90
41256;DHT22;26989;45.524;10.938;2022-10-28T00:04:16;14.80;99.90
41256;DHT22;26989;45.524;10.938;2022-10-28T00:06:43;14.90;99.90
41256;DHT22;26989;45.524;10.938;2022-10-28T00:09:10;14.90;99.90
41256;DHT22;26989;45.524;10.938;2022-10-28T00:11:38;14.90;99.90
41256;DHT22;26989;45.524;10.938;2022-10-28T00:14:06;14.90;99.90
41256;DHT22;26989;45.524;10.938;2022-10-28T00:16:34;14.90;99.90
41256;DHT22;26989;45.524;10.938;2022-10-28T00:19:03;14.90;99.90
41256;DHT22;26989;45.524;10.938;2022-10-28T00:21:33;14.90;99.90
41256;DHT22;26989;45.524;10.938;2022-10-28T00:24:00;14.80;99.90
41256;DHT22;26989;45.524;10.938;2022-10-28T00:26:29;14.80;99.90
41256;DHT22;26989;45.524;10.938;2022-10-28T00:29:05;14.80;99.90
41256;DHT22;26989;45.524;10.938;2022-10-28T00:31:34;14.90;99.90
41256;DHT22;26989;45.524;10.938;2022-10-28T00:34:03;14.90;99.90
41256;DHT22;26989;45.524;10.938;2022-10-28T00:36:35;14.90;99.90
41256;DHT22;26989;45.524;10.938;2022-10-28T00:39:09;14.90;99.90
41256;DHT22;26989;45.524;10.938;2022-10-28T00:41:38;14.90;99.90
41256;DHT22;26989;45.524;10.938;2022-10-28T00:47:03;15.00;99.90
41256;DHT22;26989;45.524;10.938;2022-10-28T00:49:33;15.00;99.90
41256;DHT22;26989;45.524;10.938;2022-10-28T00:52:14;15.10;99.90
41256;DHT22;26989;45.524;10.938;2022-10-28T00:54:42;15.10;99.90
41256;DHT22;26989;45.524;10.938;2022-10-28T00:57:16;15.10;99.90
41256;DHT22;26989;45.524;10.938;2022-10-28T00:59:47;15.20;99.90
41256;DHT22;26989;45.524;10.938;2022-10-28T01:02:16;15.20;99.90
41256;DHT22;26989;45.524;10.938;2022-10-28T01:04:45;15.10;99.90
41256;DHT22;26989;45.524;10.938;2022-10-28T01:07:14;15.10;99.90
41256;DHT22;26989;45.524;10.938;2022-10-28T01:09:41;15.10;99.90
41256;DHT22;26989;45.524;10.938;2022-10-28T01:17:50;15.30;99.90
41256;DHT22;26989;45.524;10.938;2022-10-28T01:27:07;15.50;99.90
41256;DHT22;26989;45.524;10.938;2022-10-28T01:32:28;15.50;99.90
41256;DHT22;26989;45.524;10.938;2022-10-28T01:37:54;15.40;99.90
41256;DHT22;26989;45.524;10.938;2022-10-28T01:40:32;15.30;99.90
41256;DHT22;26989;45.524;10.938;2022-10-28T01:43:05;15.30;99.90
41256;DHT22;26989;45.524;10.938;2022-10-28T01:48:33;15.20;99.90
41256;DHT22;26989;45.524;10.938;2022-10-28T01:51:24;15.10;99.90
41256;DHT22;26989;45.524;10.938;2022-10-28T01:53:53;15.10;99.90
41256;DHT22;26989;45.524;10.938;2022-10-28T01:56:24;14.90;99.90
41256;DHT22;26989;45.524;10.938;2022-10-28T01:58:54;14.60;99.90
41256;DHT22;26989;45.524;10.938;2022-10-28T02:01:23;14.50;99.90
41256;DHT22;26989;45.524;10.938;2022-10-28T02:03:50;14.70;99.90
41256;DHT22;26989;45.524;10.938;2022-10-28T02:06:21;15.00;99.90
41256;DHT22;26989;45.524;10.938;2022-10-28T02:19:37;14.60;99.90
41256;DHT22;26989;45.524;10.938;2022-10-28T02:22:25;14.50;99.90
41256;DHT22;26989;45.524;10.938;2022-10-28T02:27:30;14.40;99.90
41256;DHT22;26989;45.524;10.938;2022-10-28T02:30:12;14.50;99.90
41256;DHT22;26989;45.524;10.938;2022-10-28T02:32:45;14.50;99.90
41256;DHT22;26989;45.524;10.938;2022-10-28T02:35:20;14.50;99.90
41256;DHT22;26989;45.524;10.938;2022-10-28T02:37:49;14.60;99.90
41256;DHT22;26989;45.524;10.938;2022-10-28T02:40:20;14.50;99.90
41256;DHT22;26989;45.524;10.938;2022-10-28T02:42:54;14.30;99.90
41256;DHT22;26989;45.524;10.938;2022-10-28T02:45:37;14.30;99.90
41256;DHT22;26989;45.524;10.938;2022-10-28T02:48:39;14.20;99.90
41256;DHT22;26989;45.524;10.938;2022-10-28T02:51:35;14.30;99.90
41256;DHT22;26989;45.524;10.938;2022-10-28T02:54:14;14.30;99.90
41256;DHT22;26989;45.524;10.938;2022-10-28T02:56:51;14.20;99.90
41256;DHT22;26989;45.524;10.938;2022-10-28T02:59:23;14.30;99.90
41256;DHT22;26989;45.524;10.938;2022-10-28T03:01:50;14.40;99.90
41256;DHT22;26989;45.524;10.938;2022-10-28T03:04:17;14.40;99.90
41256;DHT22;26989;45.524;10.938;2022-10-28T03:06:43;14.50;99.90
41256;DHT22;26989;45.524;10.938;2022-10-28T03:09:10;14.40;99.90
41256;DHT22;26989;45.524;10.938;2022-10-28T03:11:37;14.40;99.90
41256;DHT22;26989;45.524;10.938;2022-10-28T03:14:04;14.50;99.90
41256;DHT22;26989;45.524;10.938;2022-10-28T03:16:31;14.50;99.90
41256;DHT22;26989;45.524;10.938;2022-10-28T03:18:57;14.60;99.90
41256;DHT22;26989;45.524;10.938;2022-10-28T03:21:24;14.60;99.90
41256;DHT22;26989;45.524;10.938;2022-10-28T03:23:51;14.60;99.90
41256;DHT22;26989;45.524;10.938;2022-10-28T03:26:18;14.60;99.90
41256;DHT22;26989;45.524;10.938;2022-10-28T03:28:45;14.60;99.90
41256;DHT22;26989;45.524;10.938;2022-10-28T03:31:12;14.60;99.90
41256;DHT22;26989;45.524;10.938;2022-10-28T03:33:40;14.80;99.90
41256;DHT22;26989;45.524;10.938;2022-10-28T03:36:07;14.80;99.90
41256;DHT22;26989;45.524;10.938;2022-10-28T03:38:34;14.90;99.90
41256;DHT22;26989;45.524;10.938;2022-10-28T03:41:01;15.00;99.90
41256;DHT22;26989;45.524;10.938;2022-10-28T03:43:27;15.00;99.90
41256;DHT22;26989;45.524;10.938;2022-10-28T03:45:54;15.00;99.90
41256;DHT22;26989;45.524;10.938;2022-10-28T03:48:21;14.90;99.90
41256;DHT22;26989;45.524;10.938;2022-10-28T03:50:52;14.80;99.90
41256;DHT22;26989;45.524;10.938;2022-10-28T03:53:20;14.80;99.90
41256;DHT22;26989;45.524;10.938;2022-10-28T03:55:54;14.70;99.90
41256;DHT22;26989;45.524;10.938;2022-10-28T03:58:21;14.60;99.90
41256;DHT22;26989;45.524;10.938;2022-10-28T04:00:52;14.60;99.90
41256;DHT22;26989;45.524;10.938;2022-10-28T04:03:20;14.50;99.90
41256;DHT22;26989;45.524;10.938;2022-10-28T04:05:47;14.50;99.90
41256;DHT22;26989;45.524;10.938;2022-10-28T04:08:15;14.50;99.90
41256;DHT22;26989;45.524;10.938;2022-10-28T04:10:43;14.50;99.90
41256;DHT22;26989;45.524;10.938;2022-10-28T04:13:14;14.60;99.90
41256;DHT22;26989;45.524;10.938;2022-10-28T04:15:41;14.60;99.90
41256;DHT22;26989;45.524;10.938;2022-10-28T04:18:08;14.60;99.90
41256;DHT22;26989;45.524;10.938;2022-10-28T04:20:35;14.60;99.90
41256;DHT22;26989;45.524;10.938;2022-10-28T04:23:02;14.50;99.90
41256;DHT22;26989;45.524;10.938;2022-10-28T04:25:29;14.50;99.90
41256;DHT22;26989;45.524;10.938;2022-10-28T04:27:56;14.40;99.90
41256;DHT22;26989;45.524;10.938;2022-10-28T04:30:23;14.40;99.90
41256;DHT22;26989;45.524;10.938;2022-10-28T04:32:50;14.40;99.90
41256;DHT22;26989;45.524;10.938;2022-10-28T04:35:16;14.40;99.90
41256;DHT22;26989;45.524;10.938;2022-10-28T04:37:44;14.40;99.90
41256;DHT22;26989;45.524;10.938;2022-10-28T04:40:11;14.40;99.90
41256;DHT22;26989;45.524;10.938;2022-10-28T04:42:37;14.30;99.90
41256;DHT22;26989;45.524;10.938;2022-10-28T04:45:05;14.40;99.90
41256;DHT22;26989;45.524;10.938;2022-10-28T04:47:32;14.40;99.90
41256;DHT22;26989;45.524;10.938;2022-10-28T04:49:59;14.30;99.90
41256;DHT22;26989;45.524;10.938;2022-10-28T04:52:25;14.30;99.90
41256;DHT22;26989;45.524;10.938;2022-10-28T04:54:52;14.40;99.90
41256;DHT22;26989;45.524;10.938;2022-10-28T04:57:19;14.40;99.90
41256;DHT22;26989;45.524;10.938;2022-10-28T04:59:46;14.40;99.90
41256;DHT22;26989;45.524;10.938;2022-10-28T05:02:12;14.30;99.90
41256;DHT22;26989;45.524;10.938;2022-10-28T05:04:39;14.30;99.90
41256;DHT22;26989;45.524;10.938;2022-10-28T05:07:06;14.30;99.90
41256;DHT22;26989;45.524;10.938;2022-10-28T05:09:33;14.20;99.90
41256;DHT22;26989;45.524;10.938;2022-10-28T05:12:00;14.30;99.90
41256;DHT22;26989;45.524;10.938;2022-10-28T05:14:26;14.40;99.90
41256;DHT22;26989;45.524;10.938;2022-10-28T05:16:53;14.40;99.90
41256;DHT22;26989;45.524;10.938;2022-10-28T05:19:21;14.40;99.90
41256;DHT22;26989;45.524;10.938;2022-10-28T05:21:47;14.50;99.90
41256;DHT22;26989;45.524;10.938;2022-10-28T05:24:14;14.50;99.90
41256;DHT22;26989;45.524;10.938;2022-10-28T05:26:41;14.50;99.90
41256;DHT22;26989;45.524;10.938;2022-10-28T05:29:08;14.40;99.90
41256;DHT22;26989;45.524;10.938;2022-10-28T05:31:34;14.50;99.90
41256;DHT22;26989;45.524;10.938;2022-10-28T05:34:01;14.50;99.90
41256;DHT22;26989;45.524;10.938;2022-10-28T05:36:28;14.50;99.90
41256;DHT22;26989;45.524;10.938;2022-10-28T05:38:54;14.60;99.90
41256;DHT22;26989;45.524;10.938;2022-10-28T05:41:22;14.60;99.90
41256;DHT22;26989;45.524;10.938;2022-10-28T05:43:50;14.70;99.90
41256;DHT22;26989;45.524;10.938;2022-10-28T05:46:17;14.60;99.90
41256;DHT22;26989;45.524;10.938;2022-10-28T05:48:44;14.50;99.90
41256;DHT22;26989;45.524;10.938;2022-10-28T05:51:10;14.50;99.90
41256;DHT22;26989;45.524;10.938;2022-10-28T05:53:37;14.50;99.90
41256;DHT22;26989;45.524;10.938;2022-10-28T05:56:04;14.50;99.90
41256;DHT22;26989;45.524;10.938;2022-10-28T05:58:31;14.50;99.90
41256;DHT22;26989;45.524;10.938;2022-10-28T06:00:58;14.50;99.90
41256;DHT22;26989;45.524;10.938;2022-10-28T06:03:24;14.50;99.90
41256;DHT22;26989;45.524;10.938;2022-10-28T06:05:57;14.50;99.90
41256;DHT22;26989;45.524;10.938;2022-10-28T06:08:24;14.50;99.90
41256;DHT22;26989;45.524;10.938;2022-10-28T06:10:52;14.60;99.90
41256;DHT22;26989;45.524;10.938;2022-10-28T06:13:22;14.60;99.90
41256;DHT22;26989;45.524;10.938;2022-10-28T06:15:53;14.80;99.90
41256;DHT22;26989;45.524;10.938;2022-10-28T06:18:21;14.90;99.90
41256;DHT22;26989;45.524;10.938;2022-10-28T06:20:55;14.80;99.90
41256;DHT22;26989;45.524;10.938;2022-10-28T06:23:22;14.80;99.90
41256;DHT22;26989;45.524;10.938;2022-10-28T06:25:50;14.70;99.90
41256;DHT22;26989;45.524;10.938;2022-10-28T06:28:17;14.70;99.90
41256;DHT22;26989;45.524;10.938;2022-10-28T06:30:43;14.80;99.90
41256;DHT22;26989;45.524;10.938;2022-10-28T06:33:10;14.90;99.90
41256;DHT22;26989;45.524;10.938;2022-10-28T06:35:37;15.00;99.90
41256;DHT22;26989;45.524;10.938;2022-10-28T06:38:04;15.00;99.90
41256;DHT22;26989;45.524;10.938;2022-10-28T06:40:36;15.10;99.90
41256;DHT22;26989;45.524;10.938;2022-10-28T06:43:04;15.20;99.90
41256;DHT22;26989;45.524;10.938;2022-10-28T06:45:33;15.30;99.90
41256;DHT22;26989;45.524;10.938;2022-10-28T06:48:02;15.30;99.90
41256;DHT22;26989;45.524;10.938;2022-10-28T06:50:30;15.30;99.90
41256;DHT22;26989;45.524;10.938;2022-10-28T06:52:57;15.40;99.90
41256;DHT22;26989;45.524;10.938;2022-10-28T06:55:25;15.40;99.90
41256;DHT22;26989;45.524;10.938;2022-10-28T06:57:52;15.50;99.90
41256;DHT22;26989;45.524;10.938;2022-10-28T07:00:19;15.70;99.90
41256;DHT22;26989;45.524;10.938;2022-10-28T07:02:51;15.80;99.90
41256;DHT22;26989;45.524;10.938;2022-10-28T07:05:18;16.00;99.90
41256;DHT22;26989;45.524;10.938;2022-10-28T07:07:45;16.00;99.90
41256;DHT22;26989;45.524;10.938;2022-10-28T07:10:12;16.10;99.90
41256;DHT22;26989;45.524;10.938;2022-10-28T07:12:39;16.20;99.90
41256;DHT22;26989;45.524;10.938;2022-10-28T07:15:06;16.20;99.90
41256;DHT22;26989;45.524;10.938;2022-10-28T07:17:33;16.30;99.90
41256;DHT22;26989;45.524;10.938;2022-10-28T07:20:00;16.30;99.90
41256;DHT22;26989;45.524;10.938;2022-10-28T07:22:27;16.40;99.90
41256;DHT22;26989;45.524;10.938;2022-10-28T07:24:53;16.50;99.90
41256;DHT22;26989;45.524;10.938;2022-10-28T07:27:20;16.60;99.90
41256;DHT22;26989;45.524;10.938;2022-10-28T07:29:47;16.70;99.90
41256;DHT22;26989;45.524;10.938;2022-10-28T07:32:14;16.70;99.90
41256;DHT22;26989;45.524;10.938;2022-10-28T07:34:41;16.70;99.90
41256;DHT22;26989;45.524;10.938;2022-10-28T07:37:07;16.70;99.90
41256;DHT22;26989;45.524;10.938;2022-10-28T07:39:36;16.70;99.90
41256;DHT22;26989;45.524;10.938;2022-10-28T07:42:04;16.90;99.90
41256;DHT22;26989;45.524;10.938;2022-10-28T07:44:31;16.90;99.90
41256;DHT22;26989;45.524;10.938;2022-10-28T07:46:57;16.90;99.90
41256;DHT22;26989;45.524;10.938;2022-10-28T07:49:24;17.00;99.90
41256;DHT22;26989;45.524;10.938;2022-10-28T07:51:54;17.10;99.90
41256;DHT22;26989;45.524;10.938;2022-10-28T07:54:21;17.20;99.90
41256;DHT22;26989;45.524;10.938;2022-10-28T07:56:48;17.30;99.90
41256;DHT22;26989;45.524;10.938;2022-10-28T07:59:15;17.40;99.90
41256;DHT22;26989;45.524;10.938;2022-10-28T08:01:41;17.40;99.90
41256;DHT22;26989;45.524;10.938;2022-10-28T08:04:08;17.50;99.90
41256;DHT22;26989;45.524;10.938;2022-10-28T08:06:35;17.50;99.90
41256;DHT22;26989;45.524;10.938;2022-10-28T08:09:02;17.50;99.90
41256;DHT22;26989;45.524;10.938;2022-10-28T08:11:29;17.60;99.90
41256;DHT22;26989;45.524;10.938;2022-10-28T08:13:56;17.60;99.90
41256;DHT22;26989;45.524;10.938;2022-10-28T08:16:23;17.60;99.90
41256;DHT22;26989;45.524;10.938;2022-10-28T08:18:50;17.60;99.90
41256;DHT22;26989;45.524;10.938;2022-10-28T08:21:18;17.60;99.90
41256;DHT22;26989;45.524;10.938;2022-10-28T08:23:45;17.70;99.90
41256;DHT22;26989;45.524;10.938;2022-10-28T08:26:14;17.70;99.90
41256;DHT22;26989;45.524;10.938;2022-10-28T08:28:41;17.70;99.90
41256;DHT22;26989;45.524;10.938;2022-10-28T08:31:08;17.70;99.90
41256;DHT22;26989;45.524;10.938;2022-10-28T08:33:39;17.90;99.90
41256;DHT22;26989;45.524;10.938;2022-10-28T08:36:09;17.90;99.90
41256;DHT22;26989;45.524;10.938;2022-10-28T08:38:37;17.90;99.90
41256;DHT22;26989;45.524;10.938;2022-10-28T08:49:26;18.00;99.90
41256;DHT22;26989;45.524;10.938;2022-10-28T08:54:58;18.20;99.90
41256;DHT22;26989;45.524;10.938;2022-10-28T08:59:56;18.20;99.90
41256;DHT22;26989;45.524;10.938;2022-10-28T09:02:29;18.20;99.90
41256;DHT22;26989;45.524;10.938;2022-10-28T09:05:06;18.30;99.90
41256;DHT22;26989;45.524;10.938;2022-10-28T09:07:40;18.30;99.90
41256;DHT22;26989;45.524;10.938;2022-10-28T09:10:12;18.40;99.90
41256;DHT22;26989;45.524;10.938;2022-10-28T09:18:18;18.60;99.90
41256;DHT22;26989;45.524;10.938;2022-10-28T09:20:54;18.70;99.90
41256;DHT22;26989;45.524;10.938;2022-10-28T09:23:46;18.70;99.90
41256;DHT22;26989;45.524;10.938;2022-10-28T09:31:49;18.70;99.90
41256;DHT22;26989;45.524;10.938;2022-10-28T09:39:53;19.00;99.90
41256;DHT22;26989;45.524;10.938;2022-10-28T09:42:35;19.10;99.90
41256;DHT22;26989;45.524;10.938;2022-10-28T09:45:17;19.00;99.90
41256;DHT22;26989;45.524;10.938;2022-10-28T09:48:13;19.10;99.90
41256;DHT22;26989;45.524;10.938;2022-10-28T09:50:37;19.10;99.90
41256;DHT22;26989;45.524;10.938;2022-10-28T09:53:20;19.10;99.90
41256;DHT22;26989;45.524;10.938;2022-10-28T09:55:51;19.10;99.90
41256;DHT22;26989;45.524;10.938;2022-10-28T09:58:18;19.20;99.90
41256;DHT22;26989;45.524;10.938;2022-10-28T10:00:45;19.20;99.90
41256;DHT22;26989;45.524;10.938;2022-10-28T10:03:12;19.20;99.90
41256;DHT22;26989;45.524;10.938;2022-10-28T10:05:45;19.20;99.90
41256;DHT22;26989;45.524;10.938;2022-10-28T10:08:18;19.30;99.90
41256;DHT22;26989;45.524;10.938;2022-10-28T10:10:53;19.30;99.90
41256;DHT22;26989;45.524;10.938;2022-10-28T10:13:27;19.30;99.90
41256;DHT22;26989;45.524;10.938;2022-10-28T10:16:05;19.50;99.90
41256;DHT22;26989;45.524;10.938;2022-10-28T10:18:35;19.40;99.90
41256;DHT22;26989;45.524;10.938;2022-10-28T10:21:02;19.50;99.90
41256;DHT22;26989;45.524;10.938;2022-10-28T10:23:30;19.60;99.90
41256;DHT22;26989;45.524;10.938;2022-10-28T10:26:08;19.90;99.90
41256;DHT22;26989;45.524;10.938;2022-10-28T10:28:46;19.90;99.90
41256;DHT22;26989;45.524;10.938;2022-10-28T10:31:22;19.70;99.90
41256;DHT22;26989;45.524;10.938;2022-10-28T10:33:52;19.70;99.90
41256;DHT22;26989;45.524;10.938;2022-10-28T10:36:20;19.70;99.90
41256;DHT22;26989;45.524;10.938;2022-10-28T10:38:54;19.70;99.90
41256;DHT22;26989;45.524;10.938;2022-10-28T10:41:44;19.80;99.90
41256;DHT22;26989;45.524;10.938;2022-10-28T10:49:33;19.60;99.90
41256;DHT22;26989;45.524;10.938;2022-10-28T10:52:23;19.80;99.90
41256;DHT22;26989;45.524;10.938;2022-10-28T10:55:06;20.30;99.90
41256;DHT22;26989;45.524;10.938;2022-10-28T10:57:33;20.50;99.90
41256;DHT22;26989;45.524;10.938;2022-10-28T11:00:00;20.50;99.90
41256;DHT22;26989;45.524;10.938;2022-10-28T11:02:32;20.50;99.90
41256;DHT22;26989;45.524;10.938;2022-10-28T11:05:09;20.50;99.90
41256;DHT22;26989;45.524;10.938;2022-10-28T11:07:38;20.60;99.90
41256;DHT22;26989;45.524;10.938;2022-10-28T11:10:20;20.60;99.90
41256;DHT22;26989;45.524;10.938;2022-10-28T11:13:01;20.70;99.90
41256;DHT22;26989;45.524;10.938;2022-10-28T11:15:29;21.00;99.70
41256;DHT22;26989;45.524;10.938;2022-10-28T11:18:03;21.10;99.60
41256;DHT22;26989;45.524;10.938;2022-10-28T11:20:59;21.10;99.50
41256;DHT22;26989;45.524;10.938;2022-10-28T11:23:53;21.10;99.60
41256;DHT22;26989;45.524;10.938;2022-10-28T11:26:24;21.00;98.70
41256;DHT22;26989;45.524;10.938;2022-10-28T11:29:04;21.20;99.40
41256;DHT22;26989;45.524;10.938;2022-10-28T11:40:28;21.70;98.10
41256;DHT22;26989;45.524;10.938;2022-10-28T11:43:49;21.60;98.10
41256;DHT22;26989;45.524;10.938;2022-10-28T11:46:22;21.70;97.90
41256;DHT22;26989;45.524;10.938;2022-10-28T11:57:13;22.10;97.60
41256;DHT22;26989;45.524;10.938;2022-10-28T12:06:08;22.30;97.10
41256;DHT22;26989;45.524;10.938;2022-10-28T12:14:03;22.80;97.40
41256;DHT22;26989;45.524;10.938;2022-10-28T12:22:00;22.80;96.70
41256;DHT22;26989;45.524;10.938;2022-10-28T12:24:32;22.90;96.10
41256;DHT22;26989;45.524;10.938;2022-10-28T12:27:06;23.00;96.00
41256;DHT22;26989;45.524;10.938;2022-10-28T12:29:47;23.00;96.30
41256;DHT22;26989;45.524;10.938;2022-10-28T12:32:21;23.10;96.20
41256;DHT22;26989;45.524;10.938;2022-10-28T12:37:36;23.20;95.40
41256;DHT22;26989;45.524;10.938;2022-10-28T12:42:56;23.30;96.30
41256;DHT22;26989;45.524;10.938;2022-10-28T12:45:25;23.40;96.00
41256;DHT22;26989;45.524;10.938;2022-10-28T12:50:46;23.20;95.60
41256;DHT22;26989;45.524;10.938;2022-10-28T12:55:56;23.20;96.20
41256;DHT22;26989;45.524;10.938;2022-10-28T12:58:32;23.20;96.40
41256;DHT22;26989;45.524;10.938;2022-10-28T13:01:10;23.10;96.50
41256;DHT22;26989;45.524;10.938;2022-10-28T13:03:39;23.00;96.30
41256;DHT22;26989;45.524;10.938;2022-10-28T13:06:22;22.90;96.70
41256;DHT22;26989;45.524;10.938;2022-10-28T13:09:11;22.80;96.40
41256;DHT22;26989;45.524;10.938;2022-10-28T13:23:09;21.80;96.80
41256;DHT22;26989;45.524;10.938;2022-10-28T13:28:33;21.60;97.00
41256;DHT22;26989;45.524;10.938;2022-10-28T13:31:06;21.50;96.60
41256;DHT22;26989;45.524;10.938;2022-10-28T13:33:35;21.40;96.80
41256;DHT22;26989;45.524;10.938;2022-10-28T13:36:26;21.40;96.80
41256;DHT22;26989;45.524;10.938;2022-10-28T13:38:59;21.50;96.30
41256;DHT22;26989;45.524;10.938;2022-10-28T13:41:38;21.50;96.70
41256;DHT22;26989;45.524;10.938;2022-10-28T13:49:29;21.80;97.10
41256;DHT22;26989;45.524;10.938;2022-10-28T13:54:55;22.10;96.20
41256;DHT22;26989;45.524;10.938;2022-10-28T13:57:36;22.10;96.30
41256;DHT22;26989;45.524;10.938;2022-10-28T14:00:06;22.10;96.00
41256;DHT22;26989;45.524;10.938;2022-10-28T14:02:41;22.10;96.40
41256;DHT22;26989;45.524;10.938;2022-10-28T14:05:15;22.10;96.00
41256;DHT22;26989;45.524;10.938;2022-10-28T14:07:58;22.20;96.10
41256;DHT22;26989;45.524;10.938;2022-10-28T14:10:28;22.20;96.20
41256;DHT22;26989;45.524;10.938;2022-10-28T14:13:01;22.10;96.40
41256;DHT22;26989;45.524;10.938;2022-10-28T14:15:34;22.10;96.30
41256;DHT22;26989;45.524;10.938;2022-10-28T14:21:01;22.20;95.80
41256;DHT22;26989;45.524;10.938;2022-10-28T14:25:57;21.90;96.30
41256;DHT22;26989;45.524;10.938;2022-10-28T14:39:15;21.30;97.50
41256;DHT22;26989;45.524;10.938;2022-10-28T14:49:54;21.10;98.00
41256;DHT22;26989;45.524;10.938;2022-10-28T14:52:21;21.20;98.00
41256;DHT22;26989;45.524;10.938;2022-10-28T14:54:56;21.10;98.00
41256;DHT22;26989;45.524;10.938;2022-10-28T14:57:29;21.20;97.90
41256;DHT22;26989;45.524;10.938;2022-10-28T15:00:05;21.30;98.50
41256;DHT22;26989;45.524;10.938;2022-10-28T15:02:34;21.30;98.90
41256;DHT22;26989;45.524;10.938;2022-10-28T15:05:18;21.30;98.90
41256;DHT22;26989;45.524;10.938;2022-10-28T15:07:46;21.10;99.10
41256;DHT22;26989;45.524;10.938;2022-10-28T15:10:20;20.90;99.40
41256;DHT22;26989;45.524;10.938;2022-10-28T15:12:49;20.90;99.60
41256;DHT22;26989;45.524;10.938;2022-10-28T15:15:27;20.90;99.90
41256;DHT22;26989;45.524;10.938;2022-10-28T15:17:56;20.80;99.90
41256;DHT22;26989;45.524;10.938;2022-10-28T15:20:32;20.70;99.90
41256;DHT22;26989;45.524;10.938;2022-10-28T15:23:14;20.70;99.90
41256;DHT22;26989;45.524;10.938;2022-10-28T15:25:41;20.50;99.90
41256;DHT22;26989;45.524;10.938;2022-10-28T15:28:12;20.40;99.90
41256;DHT22;26989;45.524;10.938;2022-10-28T15:30:41;20.20;99.90
41256;DHT22;26989;45.524;10.938;2022-10-28T15:33:25;20.10;99.90
41256;DHT22;26989;45.524;10.938;2022-10-28T15:35:53;19.90;99.90
41256;DHT22;26989;45.524;10.938;2022-10-28T15:38:41;19.70;99.90
41256;DHT22;26989;45.524;10.938;2022-10-28T15:43:57;19.60;99.90
41256;DHT22;26989;45.524;10.938;2022-10-28T15:46:25;19.50;99.90
41256;DHT22;26989;45.524;10.938;2022-10-28T15:48:57;19.40;99.90
41256;DHT22;26989;45.524;10.938;2022-10-28T15:51:24;19.40;99.90
41256;DHT22;26989;45.524;10.938;2022-10-28T15:53:53;19.40;99.90
41256;DHT22;26989;45.524;10.938;2022-10-28T15:56:22;19.20;99.90
41256;DHT22;26989;45.524;10.938;2022-10-28T15:59:00;19.10;99.90
41256;DHT22;26989;45.524;10.938;2022-10-28T16:03:56;18.80;99.90
41256;DHT22;26989;45.524;10.938;2022-10-28T16:06:35;18.60;99.90
41256;DHT22;26989;45.524;10.938;2022-10-28T16:09:10;18.50;99.90
41256;DHT22;26989;45.524;10.938;2022-10-28T16:11:45;18.20;99.90
41256;DHT22;26989;45.524;10.938;2022-10-28T16:14:33;18.10;99.90
41256;DHT22;26989;45.524;10.938;2022-10-28T16:17:18;18.00;99.90
41256;DHT22;26989;45.524;10.938;2022-10-28T16:19:52;17.90;99.90
41256;DHT22;26989;45.524;10.938;2022-10-28T16:22:21;17.80;99.90
41256;DHT22;26989;45.524;10.938;2022-10-28T16:24:50;17.70;99.90
41256;DHT22;26989;45.524;10.938;2022-10-28T16:27:30;17.60;99.90
41256;DHT22;26989;45.524;10.938;2022-10-28T16:29:57;17.50;99.90
41256;DHT22;26989;45.524;10.938;2022-10-28T16:32:35;17.50;99.90
41256;DHT22;26989;45.524;10.938;2022-10-28T16:35:07;17.40;99.90
41256;DHT22;26989;45.524;10.938;2022-10-28T16:37:39;17.40;99.90
41256;DHT22;26989;45.524;10.938;2022-10-28T16:40:11;17.30;99.90
41256;DHT22;26989;45.524;10.938;2022-10-28T16:42:58;17.40;99.90
41256;DHT22;26989;45.524;10.938;2022-10-28T16:45:27;17.50;99.90
41256;DHT22;26989;45.524;10.938;2022-10-28T16:47:53;17.50;99.90
41256;DHT22;26989;45.524;10.938;2022-10-28T16:50:21;17.40;99.90
41256;DHT22;26989;45.524;10.938;2022-10-28T16:52:48;17.40;99.90
41256;DHT22;26989;45.524;10.938;2022-10-28T16:55:17;17.40;99.90
41256;DHT22;26989;45.524;10.938;2022-10-28T16:57:45;17.40;99.90
41256;DHT22;26989;45.524;10.938;2022-10-28T17:00:13;17.40;99.90
41256;DHT22;26989;45.524;10.938;2022-10-28T17:02:40;17.20;99.90
41256;DHT22;26989;45.524;10.938;2022-10-28T17:05:18;17.10;99.90
41256;DHT22;26989;45.524;10.938;2022-10-28T17:07:45;17.00;99.90
41256;DHT22;26989;45.524;10.938;2022-10-28T17:10:12;17.00;99.90
41256;DHT22;26989;45.524;10.938;2022-10-28T17:12:39;16.90;99.90
41256;DHT22;26989;45.524;10.938;2022-10-28T17:15:07;16.80;99.90
41256;DHT22;26989;45.524;10.938;2022-10-28T17:17:34;16.80;99.90
41256;DHT22;26989;45.524;10.938;2022-10-28T17:20:01;16.70;99.90
41256;DHT22;26989;45.524;10.938;2022-10-28T17:22:29;16.60;99.90
41256;DHT22;26989;45.524;10.938;2022-10-28T17:24:56;16.60;99.90
41256;DHT22;26989;45.524;10.938;2022-10-28T17:27:23;16.70;99.90
41256;DHT22;26989;45.524;10.938;2022-10-28T17:29:50;16.70;99.90
41256;DHT22;26989;45.524;10.938;2022-10-28T17:32:17;16.80;99.90
41256;DHT22;26989;45.524;10.938;2022-10-28T17:34:44;16.80;99.90
41256;DHT22;26989;45.524;10.938;2022-10-28T17:37:11;16.70;99.90
41256;DHT22;26989;45.524;10.938;2022-10-28T17:39:37;16.60;99.90
41256;DHT22;26989;45.524;10.938;2022-10-28T17:42:04;16.60;99.90
41256;DHT22;26989;45.524;10.938;2022-10-28T17:44:31;16.60;99.90
41256;DHT22;26989;45.524;10.938;2022-10-28T17:46:58;16.50;99.90
41256;DHT22;26989;45.524;10.938;2022-10-28T17:49:25;16.50;99.90
41256;DHT22;26989;45.524;10.938;2022-10-28T17:51:52;16.40;99.90
41256;DHT22;26989;45.524;10.938;2022-10-28T17:54:19;16.40;99.90
41256;DHT22;26989;45.524;10.938;2022-10-28T17:56:46;16.40;99.90
41256;DHT22;26989;45.524;10.938;2022-10-28T17:59:13;16.40;99.90
41256;DHT22;26989;45.524;10.938;2022-10-28T18:01:40;16.50;99.90
41256;DHT22;26989;45.524;10.938;2022-10-28T18:04:07;16.60;99.90
41256;DHT22;26989;45.524;10.938;2022-10-28T18:06:34;16.50;99.90
41256;DHT22;26989;45.524;10.938;2022-10-28T18:09:01;16.50;99.90
41256;DHT22;26989;45.524;10.938;2022-10-28T18:11:27;16.40;99.90
41256;DHT22;26989;45.524;10.938;2022-10-28T18:13:56;16.50;99.90
41256;DHT22;26989;45.524;10.938;2022-10-28T18:16:25;16.50;99.90
41256;DHT22;26989;45.524;10.938;2022-10-28T18:18:54;16.50;99.90
41256;DHT22;26989;45.524;10.938;2022-10-28T18:21:22;16.60;99.90
41256;DHT22;26989;45.524;10.938;2022-10-28T18:23:52;16.50;99.90
41256;DHT22;26989;45.524;10.938;2022-10-28T18:26:20;16.40;99.90
41256;DHT22;26989;45.524;10.938;2022-10-28T18:28:46;16.30;99.90